• Join FlightAware (Why Join?)
  • Login
  • US Flag 
06:44PM EST


 

Airport Tracker/Info


-or-


 

Live Flight TrackerFlight Track Log ✈ N682RW ✈ 19-Jun-2014 ✈ KDTW - KBKL

Flight Track Log - Related Links

Times and Time Zones

All times are in EDT time to prevent confusion due to time zone crossing. See the N682RW flight status page for this flight to view local times or setup timezone preferences in your user account.

Time Position Orientation Groundspeed Altitude Reporting Facility
EDT Latitude Longitude Course Direction KTS MPH feet Rate Location/Type
05:56PM 42.1900 -83.3564 199° South 184 212 1,200  Level Cleveland Center
05:58PM 42.1103 -83.3933 199° South 235 270 4,400 2,400 Climbing Cleveland Center
05:58PM 42.0469 -83.4178 196° South 267 307 6,600 2,280 Climbing Cleveland Center
05:59PM 42.0286 -83.4167 177° South 267 307 6,800 1,860 Climbing Cleveland Center
05:59PM 41.9839 -83.3667 140° Southeast 287 330 8,500 2,100 Climbing Cleveland Center
06:00PM 41.9758 -83.3431 115° Southeast 288 331 9,000 1,140 Climbing Cleveland Center
06:01PM 41.9928 -83.2333 78° East 294 338 10,100 480 Climbing Cleveland Center
06:02PM 42.0175 -83.0983 76° East 357 411 10,000 60 Descending Cleveland Center
06:03PM 42.0303 -82.9689 82° East 357 411 10,300 1,020 Climbing Cleveland Center
06:04PM 42.0461 -82.8347 81° East 362 417 12,200 1,260 Climbing Cleveland Center
06:05PM 42.0506 -82.6619 88° East 386 444 13,000 360 Climbing Cleveland Center
06:06PM 42.0231 -82.5228 105° East 386 444 13,000  Level Cleveland Center
06:07PM 41.9997 -82.3822 103° East 386 444 13,000  Level Cleveland Center
06:08PM 41.9769 -82.2422 102° East 386 444 13,000  Level Cleveland Center
06:09PM 41.9514 -82.0939 103° East 386 444 13,000 -240 Level Cleveland Center
06:10PM 41.9358 -82.0017 103° East 387 445 12,700 -780 Descending Cleveland Center
06:10PM 41.9283 -81.9539 102° East 384 442 12,200 -1,200 Descending Cleveland Center
06:11PM 41.9044 -81.8247 104° East 359 413 10,900 -1,440 Descending Cleveland Center
06:12PM 41.8236 -81.7375 141° Southeast 315 362 9,300 -1,800 Descending Cleveland Center
06:13PM 41.7564 -81.6839 149° Southeast 284 327 7,300 -2,100 Descending Cleveland Center
06:14PM 41.6961 -81.6394 151° Southeast 266 306 5,300 -1,860 Descending Cleveland Center
06:15PM 41.6469 -81.6008 150° Southeast 238 274 4,000 -1,380 Descending Cleveland Center
06:15PM 41.6328 -81.5922 156° South 250 288 3,700 -840 Descending Cleveland Center
06:16PM 41.5908 -81.6172 204° Southwest 205 236 3,200 -600 Descending Cleveland Center
06:16PM 41.5828 -81.6264 220° Southwest 223 257 3,100 -120 Descending Cleveland Center
06:17PM 41.5533 -81.6839 236° Southwest 210 242 3,100 -120 Level Cleveland Center
06:17PM 41.5481 -81.6906 223° Southwest 215 247 3,000 -1,020 Descending Cleveland Center
06:18PM 41.5222 -81.7486 239° Southwest 204 235 2,100 -900 Descending Cleveland Center
06:18PM 41.5194 -81.7553 241° Southwest 208 239 2,100 -840 Level Cleveland Center
06:19PM 41.4947 -81.7303 143° Southeast 140 161 1,300 -960 Descending Cleveland Center
06:19PM 41.5011 -81.7178 56° Northeast 159 183 1,100 -360 Descending Cleveland Center
06:20PM 41.5189 -81.6828 56° Northeast 149 171 900 -240 Descending Cleveland Center